createdAt,value
2022-09-07T00:00:25.346Z,2.10
2022-09-07T00:02:56.625Z,2.10
2022-09-07T00:05:31.429Z,2.38
2022-09-07T00:08:01.039Z,2.42
2022-09-07T00:10:35.378Z,2.50
2022-09-07T00:13:04.715Z,2.10
2022-09-07T00:15:34.020Z,2.10
2022-09-07T00:18:05.234Z,2.20
2022-09-07T00:20:34.442Z,2.35
2022-09-07T00:23:03.584Z,2.05
2022-09-07T00:25:37.929Z,2.38
2022-09-07T00:28:12.228Z,2.45
2022-09-07T00:30:49.260Z,2.50
2022-09-07T00:33:21.908Z,2.58
2022-09-07T00:35:51.329Z,2.53
2022-09-07T00:38:25.610Z,2.13
2022-09-07T00:40:55.091Z,2.60
2022-09-07T00:43:33.709Z,2.40
2022-09-07T00:46:09.889Z,2.53
2022-09-07T00:48:45.081Z,2.47
2022-09-07T00:51:19.470Z,3.00
2022-09-07T00:53:54.001Z,2.80
2022-09-07T00:56:35.035Z,2.85
2022-09-07T00:59:04.701Z,2.60
2022-09-07T01:01:35.090Z,2.70
2022-09-07T01:04:08.530Z,2.40
2022-09-07T01:06:39.334Z,2.30
2022-09-07T01:09:15.265Z,2.80
2022-09-07T01:11:50.444Z,2.50
2022-09-07T01:14:21.993Z,2.40
2022-09-07T01:20:06.071Z,2.63
2022-09-07T01:22:56.102Z,2.45
2022-09-07T01:25:48.030Z,2.20
2022-09-07T01:28:27.580Z,2.30
2022-09-07T01:30:59.572Z,2.30
2022-09-07T01:33:48.974Z,2.08
2022-09-07T01:36:31.599Z,2.42
2022-09-07T01:39:08.535Z,2.03
2022-09-07T01:41:44.125Z,2.22
2022-09-07T01:44:23.603Z,2.40
2022-09-07T01:46:59.225Z,2.35
2022-09-07T01:49:32.333Z,2.08
2022-09-07T01:52:07.605Z,2.30
2022-09-07T01:54:43.105Z,2.47
2022-09-07T01:57:18.639Z,1.90
2022-09-07T01:59:55.325Z,2.20
2022-09-07T02:02:35.029Z,2.38
2022-09-07T02:05:08.013Z,2.20
2022-09-07T02:07:41.950Z,1.70
2022-09-07T02:10:14.714Z,1.80
2022-09-07T02:12:49.540Z,2.30
2022-09-07T02:15:26.077Z,2.30
2022-09-07T02:18:01.453Z,2.30
2022-09-07T02:20:35.226Z,2.72
2022-09-07T02:23:20.933Z,1.90
2022-09-07T02:25:55.790Z,2.50
2022-09-07T02:28:29.625Z,2.33
2022-09-07T02:31:01.663Z,2.33
2022-09-07T02:36:01.292Z,2.05
2022-09-07T02:38:37.186Z,1.73
2022-09-07T02:41:07.008Z,2.30
2022-09-07T02:43:36.399Z,2.30
2022-09-07T02:46:22.272Z,2.50
2022-09-07T02:49:04.554Z,2.60
2022-09-07T02:51:54.986Z,2.60
2022-09-07T02:54:41.774Z,2.67
2022-09-07T02:57:22.944Z,2.67
2022-09-07T03:00:05.143Z,2.77
2022-09-07T03:02:45.433Z,2.50
2022-09-07T03:05:21.715Z,2.60
2022-09-07T03:07:56.957Z,2.60
2022-09-07T03:10:26.194Z,2.85
2022-09-07T03:13:00.823Z,2.70
2022-09-07T03:15:30.628Z,2.42
2022-09-07T03:18:01.845Z,2.50
2022-09-07T03:20:37.418Z,2.60
2022-09-07T03:23:06.605Z,2.53
2022-09-07T03:25:35.916Z,2.30
2022-09-07T03:28:06.086Z,2.50
2022-09-07T03:30:48.235Z,2.60
2022-09-07T03:33:22.399Z,2.70
2022-09-07T03:36:01.198Z,2.70
2022-09-07T03:38:33.051Z,2.40
2022-09-07T03:41:12.422Z,2.40
2022-09-07T03:43:41.742Z,2.53
2022-09-07T03:46:11.897Z,2.45
2022-09-07T03:48:43.191Z,2.20
2022-09-07T03:51:12.948Z,2.40
2022-09-07T03:53:44.250Z,2.58
2022-09-07T03:56:15.721Z,2.63
2022-09-07T03:58:52.293Z,2.38
2022-09-07T04:01:24.315Z,2.40
2022-09-07T04:04:04.269Z,2.20
2022-09-07T04:06:34.016Z,2.30
2022-09-07T04:09:09.184Z,2.10
2022-09-07T04:11:38.716Z,2.50
2022-09-07T04:14:08.632Z,2.38
2022-09-07T04:16:45.084Z,2.28
2022-09-07T04:19:16.394Z,2.40
2022-09-07T04:21:46.287Z,2.28
2022-09-07T04:24:16.674Z,2.38
2022-09-07T04:26:51.093Z,2.50
2022-09-07T04:29:20.402Z,2.42
2022-09-07T04:31:49.599Z,2.88
2022-09-07T04:34:20.771Z,2.20
2022-09-07T04:36:54.179Z,2.40
2022-09-07T04:39:23.421Z,1.98
2022-09-07T04:41:52.557Z,2.40
2022-09-07T04:44:27.270Z,2.55
2022-09-07T04:46:56.659Z,2.58
2022-09-07T04:52:03.927Z,2.70
2022-09-07T04:54:33.145Z,2.55
2022-09-07T04:57:21.314Z,2.70
2022-09-07T04:59:55.800Z,2.78
2022-09-07T05:02:25.102Z,2.70
2022-09-07T05:04:59.461Z,2.33
2022-09-07T05:07:32.285Z,2.30
2022-09-07T05:10:01.496Z,3.17
2022-09-07T05:12:32.317Z,2.70
2022-09-07T05:15:01.633Z,2.55
2022-09-07T05:17:33.059Z,2.15
2022-09-07T05:20:05.170Z,2.53
2022-09-07T05:22:35.254Z,2.70
2022-09-07T05:25:04.494Z,2.88
2022-09-07T05:27:33.945Z,2.85
2022-09-07T05:30:04.445Z,2.65
2022-09-07T05:32:36.278Z,2.78
2022-09-07T05:35:08.254Z,2.50
2022-09-07T05:37:42.866Z,3.05
2022-09-07T05:40:14.440Z,2.67
2022-09-07T05:42:43.920Z,2.45
2022-09-07T05:45:13.955Z,2.63
2022-09-07T05:47:43.093Z,2.47
2022-09-07T05:50:19.388Z,1.90
2022-09-07T05:52:48.906Z,2.45
2022-09-07T05:55:29.949Z,2.60
2022-09-07T05:58:00.036Z,2.47
2022-09-07T06:00:29.444Z,2.53
2022-09-07T06:03:03.790Z,2.42
2022-09-07T06:05:35.228Z,2.47
2022-09-07T06:08:05.481Z,2.85
2022-09-07T06:13:12.348Z,2.88
2022-09-07T06:15:41.801Z,2.67
2022-09-07T06:18:11.189Z,2.33
2022-09-07T06:20:42.582Z,2.38
2022-09-07T06:23:11.906Z,2.55
2022-09-07T06:25:50.385Z,2.35
2022-09-07T06:28:20.083Z,2.05
2022-09-07T06:30:49.168Z,2.28
2022-09-07T06:33:22.030Z,2.40
2022-09-07T06:36:00.009Z,2.92
2022-09-07T06:38:32.387Z,2.72
2022-09-07T06:43:56.233Z,2.70
2022-09-07T06:49:21.328Z,2.75
2022-09-07T06:51:52.386Z,1.80
2022-09-07T06:57:21.090Z,2.35
2022-09-07T06:59:55.309Z,2.40
2022-09-07T07:02:24.746Z,2.63
2022-09-07T07:04:53.881Z,2.70
2022-09-07T07:07:30.048Z,2.58
2022-09-07T07:09:59.323Z,3.00
2022-09-07T07:15:00.030Z,2.58
2022-09-07T07:17:29.361Z,2.72
2022-09-07T07:20:03.864Z,2.75
2022-09-07T07:22:48.170Z,2.53
2022-09-07T07:25:18.529Z,2.47
2022-09-07T07:27:52.934Z,2.17
2022-09-07T07:30:23.553Z,2.13
2022-09-07T07:32:58.479Z,2.42
2022-09-07T07:35:27.713Z,2.28
2022-09-07T07:43:44.902Z,2.10
2022-09-07T07:46:15.498Z,1.67
2022-09-07T07:48:50.118Z,1.90
2022-09-07T07:51:19.308Z,1.50
2022-09-07T07:53:50.426Z,1.67
2022-09-07T07:56:24.848Z,1.90
2022-09-07T07:58:54.274Z,2.38
2022-09-07T08:01:23.737Z,3.20
2022-09-07T08:03:53.385Z,1.95
2022-09-07T08:06:27.794Z,1.98
2022-09-07T08:08:59.099Z,1.67
2022-09-07T08:11:30.095Z,1.80
2022-09-07T08:14:01.127Z,1.80
2022-09-07T08:16:30.471Z,1.55
2022-09-07T08:18:59.900Z,1.55
2022-09-07T08:21:29.475Z,1.70
2022-09-07T08:24:01.123Z,2.10
2022-09-07T08:29:09.427Z,1.90
2022-09-07T08:31:48.913Z,1.80
2022-09-07T08:34:18.605Z,1.95
2022-09-07T08:36:47.805Z,2.00
2022-09-07T08:39:18.792Z,2.20
2022-09-07T08:42:11.544Z,1.70
2022-09-07T08:44:47.342Z,1.80
2022-09-07T08:47:25.255Z,1.98
2022-09-07T08:50:02.389Z,1.70
2022-09-07T08:52:44.511Z,1.40
2022-09-07T08:55:19.957Z,1.10
2022-09-07T08:57:54.458Z,1.25
2022-09-07T09:00:28.794Z,1.70
2022-09-07T09:06:03.085Z,1.20
2022-09-07T09:08:52.101Z,1.40
2022-09-07T09:11:29.889Z,1.40
2022-09-07T09:14:07.989Z,1.52
2022-09-07T09:16:43.342Z,1.50
2022-09-07T09:19:32.253Z,2.00
2022-09-07T09:22:13.290Z,1.50
2022-09-07T09:24:47.457Z,1.53
2022-09-07T09:27:18.719Z,1.50
2022-09-07T09:29:50.323Z,1.60
2022-09-07T09:35:13.439Z,1.25
2022-09-07T09:37:48.090Z,1.40
2022-09-07T09:40:22.833Z,1.10
2022-09-07T09:43:04.871Z,1.00
2022-09-07T09:48:34.114Z,1.30
2022-09-07T09:54:05.747Z,1.48
2022-09-07T09:56:40.241Z,1.38
2022-09-07T10:05:35.057Z,1.50
2022-09-07T10:08:06.125Z,1.13
2022-09-07T10:10:35.752Z,1.50
2022-09-07T10:13:08.312Z,1.30
2022-09-07T10:15:44.662Z,1.55
2022-09-07T10:18:23.035Z,1.30
2022-09-07T10:20:52.373Z,1.35
2022-09-07T10:23:25.440Z,1.15
2022-09-07T10:25:59.645Z,1.40
2022-09-07T10:29:06.382Z,1.35
2022-09-07T10:31:27.270Z,1.10
2022-09-07T10:37:03.819Z,0.93
2022-09-07T10:39:37.789Z,0.98
2022-09-07T10:42:24.758Z,1.10
2022-09-07T10:45:10.566Z,1.08
2022-09-07T10:47:53.385Z,0.85
2022-09-07T10:50:30.583Z,1.10
2022-09-07T10:53:39.760Z,1.00
2022-09-07T10:56:10.697Z,1.27
2022-09-07T10:59:04.691Z,0.90
2022-09-07T11:01:45.968Z,0.95
2022-09-07T11:04:34.687Z,1.60
2022-09-07T11:07:20.578Z,1.40
2022-09-07T11:10:00.853Z,1.40
2022-09-07T11:12:35.433Z,1.20
2022-09-07T11:15:17.709Z,1.20
2022-09-07T11:17:56.905Z,1.10
2022-09-07T11:20:33.256Z,1.10
2022-09-07T11:23:16.401Z,1.10
2022-09-07T11:25:54.064Z,1.35
2022-09-07T11:28:28.700Z,1.20
2022-09-07T11:31:02.682Z,1.10
2022-09-07T11:33:37.346Z,1.00
2022-09-07T11:36:16.946Z,1.23
2022-09-07T11:38:51.752Z,1.20
2022-09-07T11:41:26.091Z,1.25
2022-09-07T11:44:04.758Z,1.10
2022-09-07T11:46:40.437Z,1.23
2022-09-07T11:49:18.658Z,1.23
2022-09-07T11:51:54.691Z,1.45
2022-09-07T11:54:50.338Z,1.13
2022-09-07T11:57:38.521Z,1.60
2022-09-07T12:00:18.681Z,1.35
2022-09-07T12:03:25.924Z,1.00
2022-09-07T12:06:21.941Z,1.00
2022-09-07T12:09:11.451Z,0.95
2022-09-07T12:12:07.735Z,1.00
2022-09-07T12:14:51.220Z,0.98
2022-09-07T12:17:37.263Z,1.10
2022-09-07T12:20:17.561Z,1.05
2022-09-07T12:23:07.305Z,1.42
2022-09-07T12:25:38.705Z,1.35
2022-09-07T12:28:18.644Z,1.40
2022-09-07T12:31:02.047Z,1.00
2022-09-07T12:33:38.949Z,1.45
2022-09-07T12:36:50.970Z,1.30
2022-09-07T12:39:25.017Z,1.50
2022-09-07T12:42:37.953Z,1.50
2022-09-07T12:45:39.917Z,1.55
2022-09-07T12:48:25.097Z,1.63
2022-09-07T12:57:30.407Z,1.50
2022-09-07T13:00:14.408Z,1.38
2022-09-07T13:07:01.631Z,1.80
2022-09-07T13:12:53.375Z,2.20
2022-09-07T13:15:46.729Z,2.10
2022-09-07T13:18:44.265Z,2.30
2022-09-07T13:21:34.579Z,2.00
2022-09-07T13:24:46.264Z,2.50
2022-09-07T13:27:46.542Z,2.47
2022-09-07T13:30:33.205Z,2.22
2022-09-07T13:33:37.452Z,2.20
2022-09-07T13:36:08.134Z,2.70
2022-09-07T13:38:38.560Z,2.63
2022-09-07T13:41:14.373Z,2.53
2022-09-07T13:43:48.834Z,2.60
2022-09-07T13:46:40.550Z,3.03
2022-09-07T13:49:25.126Z,2.70
2022-09-07T13:52:00.959Z,3.05
2022-09-07T13:54:55.961Z,2.90
2022-09-07T13:57:33.729Z,2.78
2022-09-07T14:00:11.775Z,2.83
2022-09-07T14:02:42.499Z,3.00
2022-09-07T14:05:13.984Z,2.95
2022-09-07T14:07:49.217Z,3.60
2022-09-07T14:10:21.860Z,3.50
2022-09-07T14:12:53.864Z,3.20
2022-09-07T14:15:35.034Z,3.97
2022-09-07T14:18:07.324Z,3.70
2022-09-07T14:20:42.483Z,2.92
2022-09-07T14:23:24.606Z,3.05
2022-09-07T14:26:17.727Z,3.20
2022-09-07T14:28:49.886Z,2.80
2022-09-07T14:31:22.987Z,2.50
2022-09-07T14:33:55.491Z,2.47
2022-09-07T14:36:44.039Z,2.75
2022-09-07T14:39:22.743Z,2.95
2022-09-07T14:41:52.735Z,3.10
2022-09-07T14:44:33.279Z,3.15
2022-09-07T14:47:10.481Z,3.17
2022-09-07T14:49:39.732Z,2.90
2022-09-07T14:52:09.139Z,3.00
2022-09-07T14:54:43.486Z,2.90
2022-09-07T14:57:35.045Z,2.90
2022-09-07T15:00:23.026Z,2.30
2022-09-07T15:02:54.179Z,2.47
2022-09-07T15:05:31.937Z,2.25
2022-09-07T15:08:02.344Z,2.35
2022-09-07T15:10:40.325Z,2.22
2022-09-07T15:13:27.293Z,2.10
2022-09-07T15:16:06.034Z,2.10
2022-09-07T15:18:54.180Z,1.90
2022-09-07T15:21:24.953Z,2.40
2022-09-07T15:23:55.560Z,2.10
2022-09-07T15:29:24.201Z,1.95
2022-09-07T15:32:02.433Z,1.80
2022-09-07T15:34:37.552Z,1.98
2022-09-07T15:38:01.029Z,2.13
2022-09-07T15:39:58.421Z,1.90
2022-09-07T15:45:17.099Z,1.42
2022-09-07T15:47:51.103Z,1.55
2022-09-07T15:50:23.392Z,1.50
2022-09-07T15:53:00.772Z,1.52
2022-09-07T15:55:30.200Z,1.60
2022-09-07T15:58:11.001Z,1.70
2022-09-07T16:00:41.060Z,1.73
2022-09-07T16:03:10.261Z,1.48
2022-09-07T16:05:44.413Z,1.63
2022-09-07T16:08:38.571Z,1.92
2022-09-07T16:11:18.299Z,1.50
2022-09-07T16:13:48.961Z,1.58
2022-09-07T16:16:18.386Z,1.80
2022-09-07T16:18:52.864Z,1.40
2022-09-07T16:21:26.317Z,1.70
2022-09-07T16:23:56.547Z,1.75
2022-09-07T16:26:27.084Z,2.00
2022-09-07T16:28:56.461Z,1.77
2022-09-07T16:31:27.924Z,1.83
2022-09-07T16:36:34.411Z,1.60
2022-09-07T16:39:03.979Z,1.40
2022-09-07T16:41:34.527Z,1.30
2022-09-07T16:44:04.251Z,1.33
2022-09-07T16:46:39.901Z,1.45
2022-09-07T16:49:09.265Z,1.50
2022-09-07T16:51:46.387Z,1.33
2022-09-07T16:54:16.661Z,1.27
2022-09-07T16:56:45.908Z,1.50
2022-09-07T16:59:19.811Z,1.33
2022-09-07T17:01:54.295Z,1.30
2022-09-07T17:04:28.696Z,1.35
2022-09-07T17:07:00.149Z,1.42
2022-09-07T17:09:35.380Z,1.20
2022-09-07T17:12:05.255Z,1.50
2022-09-07T17:14:34.370Z,1.35
2022-09-07T17:17:03.618Z,1.25
2022-09-07T17:19:33.034Z,1.65
2022-09-07T17:22:07.200Z,1.50
2022-09-07T17:24:38.306Z,1.50
2022-09-07T17:27:08.314Z,1.63
2022-09-07T17:29:37.786Z,1.70
2022-09-07T17:32:24.432Z,1.98
2022-09-07T17:34:56.147Z,1.90
2022-09-07T17:37:27.260Z,1.70
2022-09-07T17:45:21.391Z,1.42
2022-09-07T17:47:50.610Z,1.55
2022-09-07T17:50:24.827Z,1.65
2022-09-07T17:52:56.613Z,1.40
2022-09-07T17:55:31.617Z,1.80
2022-09-07T17:58:04.555Z,1.60
2022-09-07T18:00:39.790Z,1.60
2022-09-07T18:03:08.889Z,1.48
2022-09-07T18:05:37.950Z,1.48
2022-09-07T18:08:15.782Z,1.65
2022-09-07T18:13:36.619Z,1.50
2022-09-07T18:16:13.817Z,1.40
2022-09-07T18:18:43.246Z,1.52
2022-09-07T18:21:15.219Z,1.30
2022-09-07T18:23:46.677Z,1.30
2022-09-07T18:26:16.171Z,1.63
2022-09-07T18:31:38.376Z,1.75
2022-09-07T18:34:12.446Z,1.70
2022-09-07T18:36:43.929Z,2.03
2022-09-07T18:39:20.567Z,1.85
2022-09-07T18:41:50.001Z,1.80
2022-09-07T18:47:16.120Z,1.95
2022-09-07T18:49:55.272Z,1.75
2022-09-07T18:55:20.798Z,2.20
2022-09-07T18:57:50.167Z,2.22
2022-09-07T19:00:19.345Z,1.83
2022-09-07T19:02:56.860Z,1.85
2022-09-07T19:08:15.448Z,2.30
2022-09-07T19:10:46.759Z,2.40
2022-09-07T19:13:16.327Z,2.38
2022-09-07T19:15:50.498Z,2.70
2022-09-07T19:18:20.887Z,2.30
2022-09-07T19:20:50.425Z,2.58
2022-09-07T19:23:20.311Z,2.75
2022-09-07T19:26:03.243Z,2.72
2022-09-07T19:28:32.476Z,2.67
2022-09-07T19:31:09.286Z,2.88
2022-09-07T19:36:12.654Z,4.70
2022-09-07T19:38:42.078Z,6.55
2022-09-07T19:41:13.668Z,7.68
2022-09-07T19:43:42.810Z,6.75
2022-09-07T19:46:13.525Z,4.88
2022-09-07T19:48:48.614Z,3.92
2022-09-07T19:51:19.465Z,3.20
2022-09-07T19:53:54.361Z,3.28
2022-09-07T19:56:25.893Z,3.17
2022-09-07T19:59:02.209Z,2.53
2022-09-07T20:01:31.795Z,2.65
2022-09-07T20:04:03.253Z,3.05
2022-09-07T20:06:34.157Z,2.78
2022-09-07T20:09:04.341Z,3.00
2022-09-07T20:11:35.898Z,2.88
2022-09-07T20:14:05.505Z,2.65
2022-09-07T20:16:37.658Z,2.70
2022-09-07T20:19:13.440Z,3.33
2022-09-07T20:21:55.663Z,3.00
2022-09-07T20:24:24.764Z,2.80
2022-09-07T20:26:55.701Z,2.90
2022-09-07T20:29:29.014Z,3.08
2022-09-07T20:32:00.635Z,3.08
2022-09-07T20:34:30.776Z,3.30
2022-09-07T20:37:00.756Z,3.25
2022-09-07T20:39:29.847Z,3.20
2022-09-07T20:42:06.295Z,3.25
2022-09-07T20:44:35.424Z,3.17
2022-09-07T20:47:05.204Z,3.00
2022-09-07T20:49:34.536Z,3.20
2022-09-07T20:52:03.993Z,2.80
2022-09-07T20:54:33.575Z,3.17
2022-09-07T20:57:08.040Z,2.42
2022-09-07T20:59:44.183Z,2.60
2022-09-07T21:02:13.503Z,2.60
2022-09-07T21:04:43.390Z,2.40
2022-09-07T21:07:12.733Z,2.35
2022-09-07T21:09:42.014Z,2.35
2022-09-07T21:12:11.123Z,1.88
2022-09-07T21:14:40.144Z,2.10
2022-09-07T21:17:11.541Z,2.22
2022-09-07T21:19:40.718Z,2.00
2022-09-07T21:22:09.778Z,2.05
2022-09-07T21:24:39.012Z,2.33
2022-09-07T21:27:08.642Z,2.28
2022-09-07T21:29:37.711Z,2.42
2022-09-07T21:32:07.035Z,2.30
2022-09-07T21:34:38.242Z,2.10
2022-09-07T21:37:12.487Z,2.20
2022-09-07T21:39:41.710Z,2.70
2022-09-07T21:42:10.866Z,2.60
2022-09-07T21:44:39.920Z,2.80
2022-09-07T21:47:09.066Z,2.53
2022-09-07T21:49:40.157Z,2.70
2022-09-07T21:52:14.214Z,2.78
2022-09-07T21:54:43.922Z,2.90
2022-09-07T21:57:13.261Z,2.60
2022-09-07T21:59:42.238Z,2.70
2022-09-07T22:02:11.357Z,3.00
2022-09-07T22:04:42.529Z,3.05
2022-09-07T22:07:14.363Z,2.67
2022-09-07T22:09:43.549Z,2.90
2022-09-07T22:12:12.513Z,3.00
2022-09-07T22:14:41.663Z,3.25
2022-09-07T22:17:10.739Z,3.10
2022-09-07T22:19:42.569Z,3.20
2022-09-07T22:22:17.170Z,3.10
2022-09-07T22:24:46.403Z,2.92
2022-09-07T22:27:15.441Z,3.10
2022-09-07T22:29:44.548Z,3.33
2022-09-07T22:32:13.654Z,3.20
2022-09-07T22:34:44.790Z,3.10
2022-09-07T22:37:14.020Z,3.42
2022-09-07T22:39:43.051Z,2.85
2022-09-07T22:42:12.327Z,3.30
2022-09-07T22:44:41.386Z,3.00
2022-09-07T22:47:11.799Z,2.78
2022-09-07T22:49:53.171Z,2.83
2022-09-07T22:52:22.406Z,2.92
2022-09-07T22:54:51.470Z,2.95
2022-09-07T22:57:20.676Z,3.45
2022-09-07T22:59:49.682Z,3.00
2022-09-07T23:02:19.028Z,2.90
2022-09-07T23:04:50.087Z,2.70
2022-09-07T23:07:19.486Z,3.00
2022-09-07T23:09:48.776Z,2.90
2022-09-07T23:12:18.036Z,2.55
2022-09-07T23:14:48.076Z,3.00
2022-09-07T23:17:22.557Z,2.78
2022-09-07T23:19:53.608Z,2.78
2022-09-07T23:25:02.722Z,3.00
2022-09-07T23:27:33.183Z,2.80
2022-09-07T23:30:02.289Z,2.60
2022-09-07T23:32:32.129Z,2.85
2022-09-07T23:35:03.740Z,2.67
2022-09-07T23:37:33.716Z,2.50
2022-09-07T23:40:02.813Z,2.42
2022-09-07T23:42:32.287Z,2.50
2022-09-07T23:45:01.254Z,2.70
2022-09-07T23:47:35.358Z,2.40
2022-09-07T23:50:07.167Z,2.10
2022-09-07T23:55:06.668Z,2.35
2022-09-07T23:57:35.875Z,2.13
